TAF Text Data
IDs:
Format:
Raw Decoded Include METAR

Data at: 1542 UTC 15 Oct 2018

KGUP 151453Z AUTO 08008KT 10SM BKN055 OVC075 02/M04 A3026 RMK AO2 SLP219 T00171039 53014

KGUP 151130Z 1512/1612 05007KT P6SM VCSH SCT045 BKN070
  TEMPO 1512/1515 -SHSN BKN025
  FM151700 04008KT P6SM FEW035 BKN050
  FM152100 06008KT P6SM VCSH BKN035
  FM160100 06009KT P6SM SCT035 BKN050